Hauptseite
METAR-TAF:

METAR-TAF

Flughäfen :

Flughafen Abidjan

Abidjan, Elfenbeinküste

Breite: 05-15N, Länge: 003-56W, Höhe: 7 m

Beobachtung

Neuester Wetterbericht von vor 21 Minuten, um 05:00 UTC
Wind 3 kt aus West
Temperatur 28°C
Luftfeuchtigkeit 74%
Luftdruck 1010 hPa
Sichtweite 10 km oder mehr
Leicht bewölkt in der Höhe von 1200 ft

METAR: DIAP 190500Z 28003KT 9999 FEW012 28/23 Q1010 NOSIG

Zeit: 05:21 (05:21 UTC)

Prognose

Neuester Wetterbericht von vor 6 Stunden und 21 Minuten, um 23:00 UTC
Gültige Prognose vom 19 um 00 UTC bis 20 um 06 UTC
Wind 4 kt aus Süd/Südwest
Sichtweite 10 km oder mehr
Aufgelockert bewölkt in der Höhe von 1200 ft
Zeitweise
vom 19 um 16 UTC bis 19 um 22 UTC
Durchbrochene Bewölkung in der Höhe von 1200 ft
Leicht bewölkt in der Höhe von 2000 ft, Kumulonimbus.
Gewitter

TAF: DIAP 182300Z 1900/2006 20004KT 9999 SCT012 TEMPO 1916/1922 TS BKN012 FEW020CB

Wetterbeobachtungen und Prognosen von mehr als 4000 Flughäfen (METAR und TAF Bericht).

Die verfügbaren Stationen werden durch gelbe und rote Markierungen auf der Karte dargestellt.

Führen Sie die Maus auf sie, um den Namen der Station zu sehen.

Darauf klicken, um die Beobachtung von Wetterbeobachtungen und Prognosen zu sehen.

Um die Karte zu ändern : klicken Sie auf den grünen Tasten mit einem schwarzen Kreuz Zum Vergrößern, auf den grünen Button mit einem Gedankenstrich zu verkleinern, oder auf die grünen Pfeile für benachbarte Karten.


METAR-TAF: